• Join FlightAware (Why Join?)
  • Login
  • US Flag 
05:40AM EDT


 

Airport Tracker/Info


-or-


 

Live Flight TrackerFlight Track Log ✈ UAL4679 ✈ 23-Jun-2013 ✈ KEWR - KJAX

Flight Track Log - Related Links

Times and Time Zones

All times are in EDT time to prevent confusion due to time zone crossing. See the UAL4679 flight status page for this flight to view local times or setup timezone preferences in your user account.

Time Position Orientation Groundspeed Altitude Reporting Facility
EDT Latitude Longitude Course Direction KTS MPH feet Rate Location/Type
12:58PM 40.6333 -74.1833 270° West 176 203 1,900  Level New York TRACON
12:59PM 40.6167 -74.2500 252° West 219 252 3,500 1,740 Climbing New York TRACON
01:00PM 40.5568 -74.5195 250° West  Level FlightAware Approximate
01:00PM 40.6167 -74.3333 270° West 252 290 5,400  Level New York TRACON
01:01PM 40.5216 -74.6485 250° West  Level FlightAware Approximate
01:01PM 40.6000 -74.4333 258° West 264 304 7,400  Level New York TRACON
01:02PM 40.4808 -74.7744 246° West  Level FlightAware Approximate
01:03PM 40.4349 -74.8968 237° Southwest  Level FlightAware Approximate
01:03PM 40.5953 -74.6056 268° West 284 327 10,500  Level New York Center
01:04PM 40.3833 -75.0078 270° West  Level FlightAware Approximate
01:04PM 40.5794 -74.7003 258° West 297 342 12,100  Level New York Center
01:05PM 40.5264 -74.7956 234° Southwest 291 335 13,700 1,260 Climbing New York Center
01:06PM 40.4733 -74.8853 232° Southwest 309 356 14,600 660 Climbing New York Center
01:07PM 40.4200 -74.9719 231° Southwest 331 381 15,100 540 Climbing New York Center
01:08PM 40.3522 -75.0658 227° Southwest 352 405 15,800 840 Climbing New York Center
01:09PM 40.2772 -75.1728 227° Southwest 364 419 16,800 900 Climbing New York Center
01:10PM 40.2069 -75.2717 227° Southwest 372 428 17,600 720 Climbing New York Center
01:11PM 40.1431 -75.3625 227° Southwest 377 434 18,300 720 Climbing New York Center
01:12PM 40.0744 -75.4611 228° Southwest 377 434 19,100 840 Climbing New York Center
01:13PM 40.0039 -75.5567 226° Southwest 377 434 20,000 840 Climbing New York Center
01:14PM 39.9331 -75.6547 227° Southwest 377 434 20,800 780 Climbing New York Center
01:15PM 39.8864 -75.7758 243° Southwest 377 434 21,600 840 Climbing New York Center
01:16PM 39.8453 -75.9056 248° West 372 428 22,500 780 Climbing New York Center
01:17PM 39.8106 -76.0325 250° West 382 440 23,300 720 Climbing New York Center
01:18PM 39.7694 -76.1564 247° West 382 440 24,000 780 Climbing New York Center
01:19PM 39.7233 -76.2961 247° West 382 440 24,900 840 Climbing New York Center
01:20PM 39.6697 -76.4158 240° Southwest 382 440 25,700 720 Climbing New York Center
01:21PM 39.6022 -76.5183 229° Southwest 382 440 26,400 720 Climbing New York Center
01:22PM 39.5217 -76.6433 230° Southwest 381 438 27,300 720 Climbing Washington Center
01:23PM 39.4539 -76.7500 231° Southwest 381 438 28,000 660 Climbing Washington Center
01:24PM 39.3881 -76.8592 232° Southwest 386 444 28,700 720 Climbing Washington Center
01:25PM 39.3264 -76.9706 234° Southwest 386 444 29,500 720 Climbing Washington Center
01:26PM 39.2731 -77.0875 240° Southwest 392 451 30,200 660 Climbing Washington Center
01:27PM 39.2194 -77.2069 240° Southwest 392 451 30,900 720 Climbing Washington Center
01:28PM 39.1656 -77.3289 240° Southwest 387 445 31,700 840 Climbing Washington Center
01:29PM 39.1139 -77.4481 241° Southwest 392 451 32,600 840 Climbing Washington Center
01:30PM 39.0597 -77.5669 240° Southwest 392 451 33,500 660 Climbing Washington Center
01:31PM 38.9856 -77.6372 216° Southwest 366 421 34,000 240 Climbing Washington Center
01:32PM 38.8803 -77.6956 203° Southwest 377 434 34,000  Level Washington Center
01:33PM 38.7814 -77.7486 203° Southwest 387 445 34,000 120 Level Washington Center
01:34PM 38.6783 -77.8042 203° Southwest 407 468 34,300 600 Climbing Washington Center
01:35PM 38.5750 -77.8594 203° Southwest 407 468 35,300 780 Climbing Washington Center
01:36PM 38.4783 -77.9097 202° Southwest 400 460 36,000 300 Climbing Washington Center
01:37PM 38.3772 -77.9647 203° Southwest 400 460 36,000  Level Washington Center
01:38PM 38.2717 -78.0197 202° Southwest 400 460 36,000  Level Washington Center
01:39PM 38.1664 -78.0769 203° Southwest 405 466 36,000  Level Washington Center
01:40PM 38.0608 -78.1314 202° Southwest 405 466 36,000  Level Washington Center
01:41PM 37.9569 -78.2097 211° Southwest 393 452 36,000  Level Washington Center
01:42PM 37.8675 -78.2958 217° Southwest 406 467 36,000  Level Washington Center
01:43PM 37.7864 -78.3744 217° Southwest 411 473 36,000  Level Washington Center
01:44PM 37.6969 -78.4553 216° Southwest 411 473 36,000  Level Washington Center
01:45PM 37.6050 -78.5433 217° Southwest 411 473 36,000  Level Washington Center
01:46PM 37.5156 -78.6239 216° Southwest 411 473 36,000  Level Washington Center
01:47PM 37.4150 -78.7192 217° Southwest 411 473 36,000  Level Washington Center
01:48PM 37.3272 -78.8017 217° Southwest 411 473 36,000  Level Washington Center
01:49PM 37.2375 -78.8867 217° Southwest 411 473 36,000  Level Washington Center
01:50PM 37.1453 -78.9686 215° Southwest 411 473 36,000  Level Washington Center
01:51PM 37.0556 -79.0506 216° Southwest 411 473 36,000  Level Washington Center
01:52PM 36.9761 -79.1250 217° Southwest 411 473 36,000  Level Washington Center
01:53PM 36.8881 -79.2094 217° Southwest 411 473 36,000  Level Washington Center
01:54PM 36.8000 -79.2908 217° Southwest 406 467 36,000  Level Washington Center
01:55PM 36.7097 -79.3719 216° Southwest 401 461 36,000  Level Washington Center
01:56PM 36.6131 -79.4631 217° Southwest 401 461 36,000  Level Washington Center
01:57PM 36.5228 -79.5464 217° Southwest 401 461 36,000  Level Washington Center
02:00PM 36.2900 -79.7525 216° Southwest 413 475 36,000  Level Atlanta Center
02:01PM 36.1908 -79.8428 216° Southwest 413 475 36,000  Level Atlanta Center
02:02PM 36.0997 -79.9219 215° Southwest 410 472 36,000  Level Atlanta Center
02:03PM 36.0019 -79.9936 211° Southwest 401 461 36,000  Level Atlanta Center
02:04PM 35.8994 -80.0447 202° Southwest 414 476 36,000  Level Atlanta Center
02:05PM 35.8050 -80.0956 204° Southwest 414 476 36,000  Level Atlanta Center
02:06PM 35.6983 -80.1467 201° Southwest 409 471 36,000  Level Atlanta Center
02:07PM 35.5936 -80.2028 204° Southwest 403 464 36,000  Level Atlanta Center
02:08PM 35.4889 -80.2561 203° Southwest 387 445 36,000  Level Atlanta Center
02:09PM 35.3819 -80.3094 202° Southwest 387 445 36,000  Level Atlanta Center
02:11PM 35.1453 -80.4278 202° Southwest 409 471 36,000  Level Jacksonville Center
02:12PM 35.0375 -80.4689 197° South 409 471 36,000  Level Jacksonville Center
02:13PM 34.9256 -80.5025 194° South 409 471 36,000  Level Jacksonville Center
02:14PM 34.8136 -80.5283 191° South 409 471 36,000  Level Jacksonville Center
02:15PM 34.7097 -80.5564 193° South 403 464 36,000  Level Jacksonville Center
02:16PM 34.6000 -80.5947 196° South 403 464 36,000  Level Jacksonville Center
02:17PM 34.4900 -80.6278 194° South 403 464 36,000  Level Jacksonville Center
02:18PM 34.3822 -80.6711 198° South 408 470 36,000  Level Jacksonville Center
02:19PM 34.2725 -80.7089 196° South 417 480 36,000  Level Jacksonville Center
02:20PM 34.1625 -80.7444 195° South 412 474 36,000 -240 Level Jacksonville Center
02:21PM 34.0522 -80.7672 190° South 412 474 35,600 -960 Descending Jacksonville Center
02:22PM 33.9336 -80.7950 191° South 419 482 34,100 -1,500 Descending Jacksonville Center
02:23PM 33.8214 -80.8228 192° South 419 482 32,600 -1,500 Descending Jacksonville Center
02:24PM 33.7114 -80.8478 191° South 419 482 31,100 -1,320 Descending Jacksonville Center
02:25PM 33.5992 -80.8728 191° South 414 476 30,000 -600 Descending Jacksonville Center
02:26PM 33.4867 -80.9003 192° South 414 476 30,000  Level Jacksonville Center
02:27PM 33.3744 -80.9250 190° South 414 476 30,000  Level Jacksonville Center
02:28PM 33.2600 -80.9500 190° South 414 476 30,000  Level Jacksonville Center
02:29PM 33.1456 -80.9772 191° South 414 476 30,000 -60 Level Jacksonville Center
02:30PM 33.0314 -81.0019 190° South 414 476 29,900  Descending Jacksonville Center
02:31PM 32.9147 -81.0292 191° South 414 476 30,000  Climbing Jacksonville Center
02:32PM 32.8003 -81.0564 191° South 419 482 30,000  Level Jacksonville Center
02:33PM 32.6942 -81.0806 191° South 424 488 30,000  Level Jacksonville Center
02:34PM 32.5758 -81.1250 198° South 418 481 30,000 -120 Level Jacksonville Center
02:35PM 32.4764 -81.1664 199° South 423 487 29,800 -360 Descending Jacksonville Center
02:36PM 32.3600 -81.2178 200° South 434 499 29,300 -540 Descending Jacksonville Center
02:37PM 32.2439 -81.2714 201° Southwest 445 512 28,800 -540 Descending Jacksonville Center
02:38PM 32.1275 -81.3250 201° Southwest 450 518 28,300 -600 Descending Jacksonville Center
02:39PM 32.0031 -81.3883 203° Southwest 450 518 27,700 -600 Descending Jacksonville Center
02:40PM 31.8911 -81.4464 204° Southwest 444 511 27,200 -540 Descending Jacksonville Center
02:41PM 31.7914 -81.4994 204° Southwest 444 511 26,700 -600 Descending Jacksonville Center
02:42PM 31.6689 -81.5672 205° Southwest 439 505 26,000 -1,020 Descending Jacksonville Center
02:43PM 31.5544 -81.6028 195° South 434 499 24,700 -1,920 Descending Jacksonville Center
02:44PM 31.4314 -81.6094 183° South 447 514 22,300 -3,000 Descending Jacksonville Center
02:45PM 31.3167 -81.6208 185° South 428 493 18,700 -3,540 Descending Jacksonville Center
02:45PM 31.2583 -81.6239 183° South 378 435 16,700 -3,840 Descending Jacksonville Center
02:47PM 31.1039 -81.6381 184° South 350 403 10,800 -2,820 Descending Jacksonville Center
02:48PM 31.0203 -81.6442 184° South 360 414 9,900 -1,140 Descending Jacksonville Center
02:49PM 30.9433 -81.6500 184° South 321 369 8,700 -1,860 Descending Jacksonville Center
02:50PM 30.8744 -81.6750 197° South 289 333 6,200 -2,400 Descending Jacksonville Center
02:51PM 30.8122 -81.7194 212° Southwest 269 310 4,000 -1,740 Descending Jacksonville Center
02:52PM 30.7500 -81.7564 207° Southwest 256 295 2,800 -1,020 Descending Jacksonville Center
02:53PM 30.6811 -81.7622 184° South 251 289 2,000 -420 Descending Jacksonville Center
02:54PM 30.6144 -81.7678 184° South 246 283 2,000  Level Jacksonville Center